createdAt,value
2023-04-27T04:05:58.964Z,100.00
2023-04-27T04:08:26.749Z,100.00
2023-04-27T04:10:54.691Z,100.00
2023-04-27T04:13:22.252Z,100.00
2023-04-27T04:15:49.596Z,100.00
2023-04-27T04:18:16.940Z,100.00
2023-04-27T04:20:44.849Z,100.00
2023-04-27T04:23:12.135Z,100.00
2023-04-27T04:25:40.446Z,100.00
2023-04-27T04:28:08.209Z,100.00
2023-04-27T04:30:35.538Z,100.00
2023-04-27T04:33:02.926Z,100.00
2023-04-27T04:35:33.082Z,100.00
2023-04-27T04:38:00.754Z,100.00
2023-04-27T04:40:28.059Z,100.00
2023-04-27T04:42:55.686Z,100.00
2023-04-27T04:45:23.074Z,100.00
2023-04-27T04:47:51.769Z,100.00
2023-04-27T04:50:19.132Z,100.00
2023-04-27T04:52:46.414Z,100.00
2023-04-27T04:55:15.792Z,100.00
2023-04-27T04:57:43.538Z,100.00
2023-04-27T05:00:14.121Z,100.00
2023-04-27T05:02:42.384Z,100.00
2023-04-27T05:05:10.514Z,100.00
2023-04-27T05:07:37.742Z,100.00
2023-04-27T05:10:05.400Z,100.00
2023-04-27T05:12:32.727Z,100.00
2023-04-27T05:15:00.018Z,100.00
2023-04-27T05:17:27.819Z,100.00
2023-04-27T05:19:55.171Z,100.00
2023-04-27T05:22:23.021Z,100.00
2023-04-27T05:24:50.574Z,100.00
2023-04-27T05:27:18.274Z,100.00
2023-04-27T05:29:45.602Z,100.00
2023-04-27T05:32:13.519Z,100.00
2023-04-27T05:34:41.159Z,100.00
2023-04-27T05:37:11.595Z,100.00
2023-04-27T05:39:39.490Z,100.00
2023-04-27T05:42:06.875Z,100.00
2023-04-27T05:44:34.859Z,100.00
2023-04-27T05:47:02.747Z,100.00
2023-04-27T05:49:30.697Z,100.00
2023-04-27T05:51:59.067Z,100.00
2023-04-27T05:54:27.511Z,100.00
2023-04-27T05:56:55.172Z,100.00
2023-04-27T05:59:22.390Z,100.00
2023-04-27T06:01:49.841Z,100.00
2023-04-27T06:04:17.325Z,100.00
2023-04-27T06:06:44.899Z,100.00
2023-04-27T06:09:12.882Z,100.00
2023-04-27T06:11:40.435Z,100.00
2023-04-27T06:14:07.757Z,100.00
2023-04-27T06:16:35.523Z,100.00
2023-04-27T06:19:02.906Z,100.00
2023-04-27T06:21:33.557Z,100.00
2023-04-27T06:24:01.436Z,100.00
2023-04-27T06:26:28.901Z,100.00
2023-04-27T06:28:56.519Z,100.00
2023-04-27T06:31:23.846Z,100.00
2023-04-27T06:33:51.287Z,100.00
2023-04-27T06:36:19.484Z,100.00
2023-04-27T06:38:47.321Z,100.00
2023-04-27T06:41:14.836Z,100.00
2023-04-27T06:43:42.259Z,100.00
2023-04-27T06:46:09.534Z,100.00
2023-04-27T06:48:37.258Z,100.00
2023-04-27T06:51:05.322Z,100.00
2023-04-27T06:53:33.399Z,100.00
2023-04-27T06:56:01.745Z,100.00
2023-04-27T06:58:29.126Z,100.00
2023-04-27T07:00:56.388Z,100.00
2023-04-27T07:03:24.626Z,100.00
2023-04-27T07:05:53.098Z,100.00
2023-04-27T07:08:20.399Z,100.00
2023-04-27T07:10:47.725Z,100.00
2023-04-27T07:13:15.156Z,100.00
2023-04-27T07:15:42.588Z,100.00
2023-04-27T07:18:12.128Z,100.00
2023-04-27T07:20:41.422Z,100.00
2023-04-27T07:23:08.785Z,100.00
2023-04-27T07:25:36.127Z,100.00
2023-04-27T07:28:04.299Z,100.00
2023-04-27T07:30:34.345Z,100.00
2023-04-27T07:33:02.149Z,100.00
2023-04-27T07:35:29.863Z,100.00
2023-04-27T07:37:57.468Z,100.00
2023-04-27T07:40:24.902Z,100.00
2023-04-27T07:42:52.544Z,100.00
2023-04-27T07:45:19.984Z,100.00
2023-04-27T07:47:47.694Z,100.00
2023-04-27T07:50:16.929Z,100.00
2023-04-27T07:52:44.241Z,100.00
2023-04-27T07:55:11.730Z,100.00
2023-04-27T07:57:39.410Z,100.00
2023-04-27T08:00:09.186Z,100.00
2023-04-27T08:02:40.679Z,100.00
2023-04-27T08:05:08.881Z,100.00
2023-04-27T08:07:42.407Z,100.00
2023-04-27T08:10:12.081Z,100.00
2023-04-27T08:12:39.893Z,100.00
2023-04-27T08:15:07.975Z,100.00
2023-04-27T08:17:37.083Z,100.00
2023-04-27T08:20:06.898Z,100.00
2023-04-27T08:22:34.337Z,100.00
2023-04-27T08:25:04.052Z,100.00
2023-04-27T08:27:31.925Z,100.00
2023-04-27T08:30:00.953Z,100.00
2023-04-27T08:32:28.792Z,100.00
2023-04-27T08:34:56.279Z,100.00
2023-04-27T08:37:23.983Z,100.00
2023-04-27T08:39:51.656Z,100.00
2023-04-27T08:42:18.947Z,100.00
2023-04-27T08:44:46.596Z,100.00
2023-04-27T08:47:13.922Z,100.00
2023-04-27T08:49:41.857Z,100.00
2023-04-27T08:52:16.966Z,100.00
2023-04-27T08:54:45.042Z,100.00
2023-04-27T08:57:13.887Z,100.00
2023-04-27T08:59:42.320Z,100.00
2023-04-27T09:02:22.592Z,100.00
2023-04-27T09:04:52.071Z,100.00
2023-04-27T09:07:19.954Z,100.00
2023-04-27T09:09:50.910Z,100.00
2023-04-27T09:12:22.528Z,100.00
2023-04-27T09:15:03.673Z,100.00
2023-04-27T09:17:33.864Z,100.00
2023-04-27T09:20:10.305Z,100.00
2023-04-27T09:22:48.215Z,100.00
2023-04-27T09:25:25.401Z,100.00
2023-04-27T09:27:53.412Z,100.00
2023-04-27T09:30:21.393Z,100.00
2023-04-27T09:32:57.106Z,100.00
2023-04-27T09:35:29.337Z,100.00
2023-04-27T09:37:57.240Z,97.96
2023-04-27T09:40:27.844Z,94.43
2023-04-27T09:43:03.580Z,91.29
2023-04-27T09:45:34.401Z,91.71
2023-04-27T09:48:01.967Z,93.09
2023-04-27T09:50:29.777Z,95.12
2023-04-27T09:52:57.369Z,88.71
2023-04-27T09:55:28.599Z,87.95
2023-04-27T09:58:28.683Z,89.39
2023-04-27T10:00:59.011Z,88.30
2023-04-27T10:04:04.062Z,87.33
2023-04-27T10:06:34.793Z,88.55
2023-04-27T10:09:06.625Z,84.30
2023-04-27T10:11:44.520Z,82.50
2023-04-27T10:14:18.167Z,83.49
2023-04-27T10:16:56.852Z,80.96
2023-04-27T10:19:25.705Z,82.71
2023-04-27T10:22:03.499Z,82.16
2023-04-27T10:24:41.412Z,83.25
2023-04-27T10:27:12.323Z,79.38
2023-04-27T10:29:46.079Z,80.05
2023-04-27T10:32:34.346Z,77.79
2023-04-27T10:35:09.314Z,74.20
2023-04-27T10:37:42.097Z,75.89
2023-04-27T10:40:14.568Z,75.20
2023-04-27T10:42:42.365Z,74.47
2023-04-27T10:45:12.339Z,72.52
2023-04-27T10:47:45.186Z,71.08
2023-04-27T10:50:14.316Z,71.75
2023-04-27T10:52:46.236Z,68.68
2023-04-27T10:55:15.844Z,69.05
2023-04-27T10:57:46.671Z,71.83
2023-04-27T11:00:17.576Z,69.92
2023-04-27T11:02:44.994Z,73.47
2023-04-27T11:05:24.990Z,67.93
2023-04-27T11:08:04.060Z,64.97
2023-04-27T11:10:31.502Z,65.06
2023-04-27T11:12:59.478Z,66.67
2023-04-27T11:15:27.583Z,65.04
2023-04-27T11:18:04.787Z,67.91
2023-04-27T11:20:32.758Z,64.31
2023-04-27T11:23:00.741Z,64.36
2023-04-27T11:25:29.868Z,63.41
2023-04-27T11:27:58.695Z,59.44
2023-04-27T11:30:26.439Z,60.11
2023-04-27T11:32:54.408Z,61.88
2023-04-27T11:35:34.430Z,57.84
2023-04-27T11:38:02.090Z,58.03
2023-04-27T11:40:29.883Z,57.32
2023-04-27T11:43:04.309Z,57.71
2023-04-27T11:45:32.153Z,57.98
2023-04-27T11:48:01.186Z,56.58
2023-04-27T11:50:28.779Z,55.26
2023-04-27T11:53:00.991Z,56.47
2023-04-27T11:55:28.739Z,54.78
2023-04-27T11:57:58.328Z,52.67
2023-04-27T12:00:25.792Z,52.14
2023-04-27T12:02:53.501Z,52.97
2023-04-27T12:05:21.515Z,53.18
2023-04-27T12:07:49.459Z,50.57
2023-04-27T12:10:17.000Z,50.07
2023-04-27T12:12:44.395Z,51.18
2023-04-27T12:15:11.866Z,50.53
2023-04-27T12:17:39.927Z,49.20
2023-04-27T12:20:08.653Z,50.51
2023-04-27T12:22:35.972Z,50.05
2023-04-27T12:25:03.375Z,49.79
2023-04-27T12:27:32.154Z,52.63
2023-04-27T12:30:00.587Z,51.18
2023-04-27T12:32:28.234Z,49.60
2023-04-27T12:34:55.530Z,50.15
2023-04-27T12:37:23.949Z,49.68
2023-04-27T12:39:52.906Z,48.56
2023-04-27T12:42:23.993Z,49.95
2023-04-27T12:44:52.658Z,47.28
2023-04-27T12:49:54.541Z,47.63
2023-04-27T12:52:22.991Z,47.20
2023-04-27T12:54:57.581Z,45.88
2023-04-27T12:57:25.565Z,45.83
2023-04-27T12:59:53.477Z,45.38
2023-04-27T13:02:20.977Z,44.82
2023-04-27T13:04:49.594Z,46.12
2023-04-27T13:07:17.310Z,46.58
2023-04-27T13:09:45.290Z,45.70
2023-04-27T13:12:13.988Z,44.56
2023-04-27T13:14:42.329Z,43.15
2023-04-27T13:17:10.359Z,42.35
2023-04-27T13:19:37.997Z,42.99
2023-04-27T13:22:05.428Z,44.07
2023-04-27T13:24:32.810Z,42.88
2023-04-27T13:27:01.431Z,44.00
2023-04-27T13:29:29.128Z,42.95
2023-04-27T13:31:56.686Z,43.33
2023-04-27T13:34:24.619Z,42.19
2023-04-27T13:36:52.286Z,42.09
2023-04-27T13:39:21.974Z,42.19
2023-04-27T13:41:49.339Z,42.90
2023-04-27T13:44:16.755Z,42.47
2023-04-27T13:46:44.540Z,41.39
2023-04-27T13:49:12.424Z,41.42
2023-04-27T13:51:40.580Z,40.63
2023-04-27T13:54:07.877Z,41.34
2023-04-27T13:56:35.258Z,38.80
2023-04-27T13:59:03.819Z,40.64
2023-04-27T14:01:32.997Z,40.34
2023-04-27T14:04:00.641Z,41.43
2023-04-27T14:06:28.285Z,40.21
2023-04-27T14:08:55.922Z,39.00
2023-04-27T14:11:23.834Z,39.97
2023-04-27T14:13:51.660Z,38.40
2023-04-27T14:16:19.135Z,37.41
2023-04-27T14:18:46.451Z,37.52
2023-04-27T14:21:13.811Z,37.28
2023-04-27T14:23:41.599Z,35.95
2023-04-27T14:26:10.156Z,37.59
2023-04-27T14:28:37.483Z,38.32
2023-04-27T14:31:05.028Z,37.80
2023-04-27T14:33:32.727Z,36.81
2023-04-27T14:36:01.345Z,35.14
2023-04-27T14:38:28.711Z,31.47
2023-04-27T14:40:56.512Z,29.02
2023-04-27T14:43:23.951Z,26.39
2023-04-27T14:45:57.084Z,25.71
2023-04-27T14:48:29.388Z,26.68
2023-04-27T14:50:56.655Z,25.76
2023-04-27T14:53:25.376Z,27.12
2023-04-27T14:55:53.340Z,26.81
2023-04-27T14:58:20.606Z,25.77
2023-04-27T15:00:47.964Z,27.18
2023-04-27T15:03:16.990Z,25.48
2023-04-27T15:05:44.663Z,26.63
2023-04-27T15:08:12.078Z,26.84
2023-04-27T15:10:39.398Z,26.50
2023-04-27T15:13:06.717Z,27.63
2023-04-27T15:15:35.536Z,27.20
2023-04-27T15:18:02.993Z,30.46
2023-04-27T15:20:30.379Z,27.57
2023-04-27T15:22:57.624Z,28.75
2023-04-27T15:25:24.958Z,28.06
2023-04-27T15:27:52.387Z,24.84
2023-04-27T15:30:20.202Z,26.26
2023-04-27T15:32:48.263Z,24.33
2023-04-27T15:35:15.893Z,26.58
2023-04-27T15:37:43.280Z,25.99
2023-04-27T15:40:11.052Z,25.19
2023-04-27T15:42:38.830Z,24.06
2023-04-27T15:45:09.869Z,24.38
2023-04-27T15:47:37.515Z,26.24
2023-04-27T15:50:06.640Z,24.68
2023-04-27T15:52:34.635Z,24.64
2023-04-27T15:55:04.157Z,24.22
2023-04-27T15:57:31.429Z,24.08
2023-04-27T15:59:59.121Z,23.59
2023-04-27T16:02:27.525Z,24.85
2023-04-27T16:04:56.452Z,23.23
2023-04-27T16:07:24.296Z,21.96
2023-04-27T16:09:51.681Z,22.68
2023-04-27T16:12:19.501Z,22.61
2023-04-27T16:14:47.648Z,23.15
2023-04-27T16:17:15.527Z,23.07
2023-04-27T16:19:44.190Z,21.88
2023-04-27T16:22:12.267Z,23.80
2023-04-27T16:24:39.991Z,23.24
2023-04-27T16:27:07.815Z,23.38
2023-04-27T16:29:35.294Z,23.92
2023-04-27T16:32:03.133Z,25.95
2023-04-27T16:34:30.759Z,23.77
2023-04-27T16:36:58.561Z,23.49
2023-04-27T16:39:26.129Z,23.10
2023-04-27T16:41:53.883Z,24.57
2023-04-27T16:44:23.296Z,25.90
2023-04-27T16:46:52.024Z,26.53
2023-04-27T16:49:19.718Z,27.17
2023-04-27T16:51:47.159Z,25.57
2023-04-27T16:54:17.564Z,26.16
2023-04-27T16:56:46.431Z,27.61
2023-04-27T16:59:14.453Z,27.22
2023-04-27T17:01:42.552Z,26.89
2023-04-27T17:04:11.110Z,31.07
2023-04-27T17:06:40.593Z,33.96
2023-04-27T17:09:09.591Z,34.52
2023-04-27T17:11:37.371Z,36.01
2023-04-27T17:14:04.703Z,38.56
2023-04-27T17:16:32.535Z,38.97
2023-04-27T17:18:59.832Z,40.33
2023-04-27T17:21:27.495Z,41.46
2023-04-27T17:23:55.692Z,42.26
2023-04-27T17:26:23.114Z,42.77
2023-04-27T17:28:51.541Z,44.50
2023-04-27T17:31:19.375Z,44.70
2023-04-27T17:33:46.731Z,45.09
2023-04-27T17:36:15.087Z,45.83
2023-04-27T17:38:42.916Z,46.57
2023-04-27T17:41:10.691Z,47.35
2023-04-27T17:43:38.525Z,48.92
2023-04-27T17:46:09.022Z,48.56
2023-04-27T17:48:36.963Z,49.65
2023-04-27T17:51:04.360Z,49.95
2023-04-27T17:53:32.134Z,50.60
2023-04-27T17:55:59.554Z,51.08
2023-04-27T17:58:28.052Z,51.60
2023-04-27T18:00:55.687Z,53.08
2023-04-27T18:03:23.551Z,54.44
2023-04-27T18:05:52.072Z,53.68
2023-04-27T18:08:19.478Z,54.67
2023-04-27T18:10:47.166Z,55.29
2023-04-27T18:13:14.629Z,55.32
2023-04-27T18:15:42.349Z,56.30
2023-04-27T18:18:11.103Z,57.49
2023-04-27T18:20:38.593Z,58.88
2023-04-27T18:23:06.048Z,61.20
2023-04-27T18:25:33.630Z,61.20
2023-04-27T18:28:01.556Z,62.56
2023-04-27T18:30:30.767Z,63.04
2023-04-27T18:32:58.700Z,64.80
2023-04-27T18:35:25.993Z,65.12
2023-04-27T18:37:53.351Z,66.33
2023-04-27T18:40:22.189Z,67.45
2023-04-27T18:42:50.057Z,67.98
2023-04-27T18:45:17.837Z,69.76
2023-04-27T18:47:45.933Z,68.92
2023-04-27T18:50:13.687Z,68.24
2023-04-27T18:52:41.153Z,67.92
2023-04-27T18:55:09.682Z,67.99
2023-04-27T18:57:37.532Z,68.70
2023-04-27T19:00:05.823Z,70.30
2023-04-27T19:02:33.450Z,71.62
2023-04-27T19:05:11.004Z,69.84
2023-04-27T19:07:39.515Z,69.76
2023-04-27T19:10:07.966Z,70.23
2023-04-27T19:12:35.918Z,74.67
2023-04-27T19:15:04.582Z,74.14
2023-04-27T19:17:32.712Z,76.98
2023-04-27T19:20:00.602Z,77.81
2023-04-27T19:22:29.300Z,79.45
2023-04-27T19:24:56.574Z,80.24
2023-04-27T19:27:24.246Z,81.86
2023-04-27T19:29:57.579Z,81.22
2023-04-27T19:32:27.360Z,77.94
2023-04-27T19:34:57.105Z,78.54
2023-04-27T19:37:26.050Z,80.05
2023-04-27T19:39:54.052Z,78.52
2023-04-27T19:42:21.921Z,82.86
2023-04-27T19:44:49.510Z,79.79
2023-04-27T19:47:17.806Z,80.71
2023-04-27T19:49:46.445Z,80.79
2023-04-27T19:52:14.268Z,77.10
2023-04-27T19:54:42.116Z,76.70
2023-04-27T19:57:10.027Z,77.13
2023-04-27T19:59:37.915Z,76.44
2023-04-27T20:02:05.967Z,76.71
2023-04-27T20:04:33.524Z,74.87
2023-04-27T20:07:02.829Z,75.44
2023-04-27T20:09:31.706Z,75.89
2023-04-27T20:12:00.235Z,75.34
2023-04-27T20:14:29.997Z,75.46
2023-04-27T20:16:57.334Z,74.85
2023-04-27T20:19:25.268Z,75.02
2023-04-27T20:21:53.219Z,74.53
2023-04-27T20:24:21.149Z,74.51
2023-04-27T20:26:49.871Z,74.70
2023-04-27T20:29:17.512Z,76.17
2023-04-27T20:31:45.985Z,76.16
2023-04-27T20:34:14.568Z,76.49
2023-04-27T20:36:44.269Z,77.68
2023-04-27T20:39:11.982Z,79.89
2023-04-27T20:41:41.767Z,78.64
2023-04-27T20:44:10.302Z,77.86
2023-04-27T20:46:38.390Z,81.41
2023-04-27T20:49:06.302Z,84.71
2023-04-27T20:51:33.959Z,87.41
2023-04-27T20:54:01.690Z,85.40
2023-04-27T20:56:30.613Z,84.69
2023-04-27T20:58:57.891Z,85.04
2023-04-27T21:01:26.650Z,86.27
2023-04-27T21:03:54.052Z,85.97
2023-04-27T21:06:21.740Z,85.95
2023-04-27T21:08:49.105Z,86.69
2023-04-27T21:11:18.151Z,88.17
2023-04-27T21:13:46.894Z,88.73
2023-04-27T21:16:14.219Z,88.48
2023-04-27T21:18:42.678Z,87.37
2023-04-27T21:21:10.664Z,88.27
2023-04-27T21:23:38.250Z,90.98
2023-04-27T21:26:07.352Z,89.16
2023-04-27T21:28:35.217Z,91.75
2023-04-27T21:31:03.289Z,91.06
2023-04-27T21:33:32.073Z,91.91
2023-04-27T21:35:59.591Z,92.30
2023-04-27T21:38:26.901Z,92.80
2023-04-27T21:40:54.159Z,91.74
2023-04-27T21:43:21.514Z,94.31
2023-04-27T21:45:49.202Z,95.15
2023-04-27T21:48:16.563Z,96.97
2023-04-27T21:50:44.451Z,97.89
2023-04-27T21:53:11.990Z,95.76
2023-04-27T21:55:39.695Z,97.02
2023-04-27T21:58:07.191Z,97.90
2023-04-27T22:00:35.342Z,98.11
